map of KNO home
KNO - Airport
Location
City:  Medan, Sumatera Utara, Indonesia
Near (Alt.):Kualanamu
Name:Kualanamu International Airport
Old (Alt.):Kuala Namu International Airport
ICAO:WIMM
IATA:KNO

Details
Type:Airport (Aerodrome, Airfield)
Use:Public/Civil, Military, International (customs port of entry)
Latitude:3°38'18"N (3.638319)
Longitude:98°52'39"E (98.877497)
Elevation:19 ft (6 m)
Variation:0.36°W (WMM2015v2 magnetic declination)
-0.00° annual change
Runways:1
Longest:12303 × 197 ft (3750 × 60 m), paved

Time
Time Zone:UTC+7
Local Time:

Weather
METAR:WIMM 041300Z 25003KT 5000 HZ SCT017 26/25 Q1012 NOSIG
TAF:WIMM 040500Z 0406/0506 35007KT 7000 FEW016CB SCT018
TEMPO 0406/0408 5000 -RA
BECMG 0412/0414 24005KT 3000 HZ SCT017

Related Locations
Nearby:
Farthest:TBP: 12398 mi / 19953 km
Tumbes [Capitán FAP Pedro Canga Rodriguez], TUM, PE

Find:

   beyond  
but within

Other Information
Maps:
NOTAMs:
Links:
Sources:

  
  • flag of Indonesia
  • flag of Sumatera Utara
  

Sectional Chart

Flight Planning
at skyvector.com

Satellite Image

Google Maps Satellite view

 

Copyright © 2004-2019 Karl L. Swartz. All rights reserved.
The Great Circle Mapper name and logo are trademarks of the Great Circle Mapper.
All other trademarks mentioned herein belong to their respective owners.
Please see credits for attibutions and further copyright information.

  Follow gcmap on Facebook Follow gcmap on Twitter GCmap on LinkedIn

hCard Microformat

Geo Microformat